Time;durP1;ratioP1;P1;durP2;ratioP2;P2;SDS_P1;SDS_P2;PMS_P1;PMS_P2;Temp;Humidity;BMP_temperature;BMP_pressure;BME280_temperature;BME280_humidity;BME280_pressure;Samples;Min_cycle;Max_cycle;Signal;HPM_P1;HPM_P2
2022/08/22 00:01:31;;;;;;;12.38;2.45;;;19.10;99.90;;;;;;5052099;28;20035;-73
2022/08/22 00:04:32;;;;;;;4.57;1.27;;;19.10;99.90;;;;;;5051765;28;20101;-70
2022/08/22 00:07:11;;;;;;;17.33;1.15;;;19.00;99.90;;;;;;5018493;28;20103;-73
2022/08/22 00:09:39;;;;;;;3.20;1.23;;;18.90;99.90;;;;;;5051143;28;20029;-74
2022/08/22 00:12:17;;;;;;;3.83;1.40;;;18.90;99.90;;;;;;5050279;28;20044;-72
2022/08/22 00:15:03;;;;;;;4.88;2.10;;;18.90;99.90;;;;;;5051030;28;20615;-72
2022/08/22 00:17:47;;;;;;;8.38;1.80;;;18.90;99.90;;;;;;5051327;28;20021;-72
2022/08/22 00:20:38;;;;;;;4.87;1.90;;;18.90;99.90;;;;;;5051726;28;20496;-72
2022/08/22 00:23:21;;;;;;;4.05;1.40;;;18.90;99.90;;;;;;5040824;28;20042;-72
2022/08/22 00:25:57;;;;;;;2.55;1.45;;;18.90;99.90;;;;;;5051883;28;20033;-74
2022/08/22 00:28:43;;;;;;;7.63;1.63;;;18.80;99.90;;;;;;5050650;28;20028;-73
2022/08/22 00:31:24;;;;;;;2.15;1.38;;;18.90;99.90;;;;;;5050645;28;20032;-73
2022/08/22 00:34:09;;;;;;;3.58;1.65;;;18.80;99.90;;;;;;5051117;28;20126;-72
2022/08/22 00:36:51;;;;;;;5.05;1.80;;;18.80;99.90;;;;;;5051506;28;20119;-72
2022/08/22 00:39:40;;;;;;;9.57;1.85;;;18.80;99.90;;;;;;5049796;28;20041;-74
2022/08/22 00:42:14;;;;;;;1.58;0.95;;;18.80;99.90;;;;;;5050726;28;20048;-73
2022/08/22 00:45:02;;;;;;;5.80;2.20;;;18.80;99.90;;;;;;5050139;28;20033;-71
2022/08/22 00:48:00;;;;;;;8.70;2.05;;;18.70;99.90;;;;;;5050260;28;20093;-73
2022/08/22 00:51:10;;;;;;;1.80;1.25;;;18.70;99.90;;;;;;5050664;28;20043;-72
2022/08/22 00:53:49;;;;;;;5.45;1.92;;;18.70;99.90;;;;;;5031699;28;20029;-73
2022/08/22 00:56:25;;;;;;;7.78;1.92;;;18.70;99.90;;;;;;5049699;28;20044;-72
2022/08/22 00:59:29;;;;;;;7.38;2.00;;;18.70;99.90;;;;;;5050039;28;20451;-72
2022/08/22 01:02:26;;;;;;;7.72;2.22;;;18.70;99.90;;;;;;5050979;28;20102;-75
2022/08/22 01:05:08;;;;;;;6.05;1.42;;;18.70;99.90;;;;;;5050844;28;20100;-73
2022/08/22 01:07:47;;;;;;;6.97;2.00;;;18.60;99.90;;;;;;5033166;28;20378;-74
2022/08/22 01:10:43;;;;;;;9.98;2.50;;;18.60;99.90;;;;;;5050353;28;20021;-74
2022/08/22 01:13:18;;;;;;;3.58;1.60;;;18.60;99.90;;;;;;5050629;28;20025;-72
2022/08/22 01:15:48;;;;;;;8.40;2.55;;;18.50;99.90;;;;;;5032549;28;20454;-74
2022/08/22 01:18:25;;;;;;;10.20;1.40;;;18.50;99.90;;;;;;5050936;28;20032;-75
2022/08/22 01:21:03;;;;;;;6.53;2.05;;;18.50;99.90;;;;;;5050743;28;20135;-72
2022/08/22 01:23:56;;;;;;;10.25;2.05;;;18.40;99.90;;;;;;5051282;28;20033;-72
2022/08/22 01:26:34;;;;;;;8.38;1.73;;;18.40;99.90;;;;;;5051016;28;20041;-74
2022/08/22 01:29:37;;;;;;;3.72;2.13;;;18.40;99.90;;;;;;5049612;28;20029;-74
2022/08/22 01:32:27;;;;;;;10.07;1.88;;;18.40;99.90;;;;;;5050420;28;20466;-74
2022/08/22 01:34:57;;;;;;;10.75;2.17;;;18.40;99.90;;;;;;5050883;28;20039;-73
2022/08/22 01:37:29;;;;;;;4.85;1.45;;;18.30;99.90;;;;;;5049649;28;20022;-72
2022/08/22 01:40:25;;;;;;;8.35;2.00;;;18.30;99.90;;;;;;5050765;28;20029;-72
2022/08/22 01:43:00;;;;;;;6.60;1.92;;;18.30;99.90;;;;;;5051510;28;20508;-73
2022/08/22 01:45:49;;;;;;;1.92;1.50;;;18.30;99.90;;;;;;5054807;28;20061;-73
2022/08/22 01:48:20;;;;;;;5.97;1.67;;;18.30;99.90;;;;;;5043781;28;20045;-74
2022/08/22 01:50:51;;;;;;;4.03;1.88;;;18.40;99.90;;;;;;5044295;28;20087;-71
2022/08/22 01:53:17;;;;;;;10.93;1.85;;;18.40;99.90;;;;;;5044260;28;20059;-73
2022/08/22 01:56:08;;;;;;;3.70;1.58;;;18.30;99.90;;;;;;5043921;28;20032;-72
2022/08/22 01:58:41;;;;;;;7.50;2.53;;;18.30;99.90;;;;;;5043505;28;20030;-73
2022/08/22 02:01:21;;;;;;;11.32;1.85;;;18.40;99.90;;;;;;5044215;28;20025;-72
2022/08/22 02:03:50;;;;;;;2.17;1.30;;;18.30;99.90;;;;;;5043981;28;20017;-72
2022/08/22 02:06:40;;;;;;;4.13;1.60;;;18.40;99.90;;;;;;5043326;28;20038;-73
2022/08/22 02:09:30;;;;;;;2.72;1.23;;;18.40;99.90;;;;;;5025866;28;20402;-71
2022/08/22 02:12:19;;;;;;;3.58;1.50;;;18.40;99.90;;;;;;5043735;28;20025;-72
2022/08/22 02:15:13;;;;;;;3.78;1.77;;;18.40;99.90;;;;;;5042845;28;20025;-74
2022/08/22 02:18:16;;;;;;;11.48;2.05;;;18.40;99.90;;;;;;5043494;28;20040;-71
2022/08/22 02:21:08;;;;;;;8.80;1.27;;;18.40;99.90;;;;;;5043521;28;20034;-72
2022/08/22 02:23:55;;;;;;;10.27;1.90;;;18.40;99.90;;;;;;5043100;28;20036;-72
2022/08/22 02:26:48;;;;;;;9.57;1.23;;;18.40;99.90;;;;;;5043698;28;20040;-73
2022/08/22 02:30:02;;;;;;;2.53;1.20;;;18.40;99.90;;;;;;5042493;28;20128;-75
2022/08/22 02:32:40;;;;;;;3.08;1.63;;;18.40;99.90;;;;;;5020868;28;20084;-72
2022/08/22 02:35:11;;;;;;;1.98;1.13;;;18.50;99.90;;;;;;5042960;28;20033;-73
2022/08/22 02:37:37;;;;;;;4.28;1.30;;;18.40;99.90;;;;;;5042982;28;20440;-72
2022/08/22 02:40:24;;;;;;;2.92;1.80;;;18.40;99.90;;;;;;5043092;28;20025;-72
2022/08/22 02:43:18;;;;;;;7.75;1.85;;;18.40;99.90;;;;;;5043310;28;20049;-72
2022/08/22 02:46:10;;;;;;;2.38;1.55;;;18.50;99.90;;;;;;5043286;28;20045;-74
2022/08/22 02:48:56;;;;;;;2.65;1.50;;;18.40;99.90;;;;;;5025024;28;20084;-72
2022/08/22 02:51:40;;;;;;;11.70;2.20;;;18.40;99.90;;;;;;5043518;28;20029;-72
2022/08/22 02:54:25;;;;;;;3.63;1.45;;;18.40;99.90;;;;;;5042471;28;20033;-72
2022/08/22 02:57:12;;;;;;;9.70;1.90;;;18.40;99.90;;;;;;5032308;28;20389;-72
2022/08/22 02:59:58;;;;;;;2.25;1.55;;;18.40;99.90;;;;;;5033764;28;20033;-74
2022/08/22 03:02:57;;;;;;;4.68;1.70;;;18.40;99.90;;;;;;5042932;28;20033;-74
2022/08/22 03:05:40;;;;;;;5.10;2.15;;;18.40;99.90;;;;;;5042763;28;20116;-72
2022/08/22 03:08:24;;;;;;;7.10;1.70;;;18.40;99.90;;;;;;5042515;28;20096;-73
2022/08/22 03:11:00;;;;;;;2.60;1.13;;;18.40;99.90;;;;;;5042352;28;20022;-72
2022/08/22 03:14:07;;;;;;;4.78;1.77;;;18.40;99.90;;;;;;5042332;28;20117;-75
2022/08/22 03:17:01;;;;;;;7.07;1.70;;;18.40;99.90;;;;;;5004731;28;20064;-72
2022/08/22 03:19:44;;;;;;;5.57;2.10;;;18.30;99.90;;;;;;5024685;28;20029;-72
2022/08/22 03:22:18;;;;;;;5.82;1.80;;;18.30;99.90;;;;;;5042151;28;20029;-72
2022/08/22 03:24:53;;;;;;;9.75;1.90;;;18.30;99.90;;;;;;5042123;28;20033;-73
2022/08/22 03:27:22;;;;;;;10.75;2.20;;;18.30;99.90;;;;;;5042140;28;20021;-71
2022/08/22 03:30:06;;;;;;;2.30;1.23;;;18.30;99.90;;;;;;5024404;28;20539;-70
2022/08/22 03:32:57;;;;;;;5.20;1.52;;;18.30;99.90;;;;;;5042157;28;20036;-73
2022/08/22 03:35:56;;;;;;;4.68;1.42;;;18.30;99.90;;;;;;5024667;28;20042;-73
2022/08/22 03:38:33;;;;;;;5.30;1.73;;;18.30;99.90;;;;;;5041802;28;20030;-73
2022/08/22 03:41:26;;;;;;;6.93;1.10;;;18.30;99.90;;;;;;5041697;28;20033;-72
2022/08/22 03:44:13;;;;;;;8.05;1.40;;;18.30;99.90;;;;;;5042417;28;20037;-73
2022/08/22 03:46:53;;;;;;;6.18;1.15;;;18.30;99.90;;;;;;5044320;28;20060;-72
2022/08/22 03:49:39;;;;;;;5.78;1.00;;;18.30;99.90;;;;;;5051681;28;20025;-73
2022/08/22 03:53:05;;;;;;;9.13;2.05;;;18.30;99.90;;;;;;5010245;28;20029;-71
2022/08/22 03:55:53;;;;;;;2.28;1.02;;;18.20;99.90;;;;;;5051980;28;20060;-72
2022/08/22 03:59:01;;;;;;;7.20;1.85;;;18.20;99.90;;;;;;5015182;28;20045;-72
2022/08/22 04:02:04;;;;;;;4.38;1.65;;;18.10;99.90;;;;;;5049654;28;20029;-73
2022/08/22 04:04:50;;;;;;;6.68;1.92;;;18.10;99.90;;;;;;5033487;28;20071;-72
2022/08/22 04:07:51;;;;;;;4.55;1.85;;;18.10;99.90;;;;;;5048411;28;20112;-73
2022/08/22 04:10:41;;;;;;;8.43;1.65;;;18.10;99.90;;;;;;5031566;28;20041;-72
2022/08/22 04:13:35;;;;;;;6.57;1.45;;;18.10;99.90;;;;;;5050372;28;20033;-72
2022/08/22 04:16:29;;;;;;;13.15;2.03;;;18.10;99.90;;;;;;5050648;28;20033;-73
2022/08/22 04:19:17;;;;;;;1.92;1.27;;;18.10;99.90;;;;;;5049197;28;20494;-73
2022/08/22 04:22:14;;;;;;;4.47;1.98;;;18.10;99.90;;;;;;5050496;28;20047;-74
2022/08/22 04:25:03;;;;;;;1.95;1.17;;;18.10;99.90;;;;;;5033097;28;20401;-73
2022/08/22 04:27:37;;;;;;;3.92;1.67;;;18.00;99.90;;;;;;5049486;28;20496;-74
2022/08/22 04:30:05;;;;;;;2.15;1.20;;;18.00;99.90;;;;;;5049814;28;20052;-74
2022/08/22 04:32:35;;;;;;;3.03;1.42;;;18.00;99.90;;;;;;5051154;28;20021;-73
2022/08/22 04:35:40;;;;;;;7.35;2.00;;;18.00;99.90;;;;;;5032697;28;20021;-72
2022/08/22 04:38:18;;;;;;;1.63;1.20;;;18.00;99.90;;;;;;5050981;28;20075;-74
2022/08/22 04:40:59;;;;;;;4.88;1.77;;;18.00;99.90;;;;;;5050813;28;20033;-73
2022/08/22 04:43:54;;;;;;;10.68;2.75;;;17.90;99.90;;;;;;5050941;28;20474;-74
2022/08/22 04:46:35;;;;;;;3.90;1.80;;;18.00;99.90;;;;;;5033421;28;20606;-73
2022/08/22 04:49:09;;;;;;;7.75;2.47;;;17.90;99.90;;;;;;5051023;28;20477;-70
2022/08/22 04:51:52;;;;;;;7.38;1.48;;;17.90;99.90;;;;;;5050121;28;20031;-73
2022/08/22 04:54:33;;;;;;;3.63;1.95;;;17.90;99.90;;;;;;5050746;28;20025;-72
2022/08/22 04:57:18;;;;;;;4.38;1.92;;;17.90;99.90;;;;;;5049785;28;20033;-72
2022/08/22 04:59:44;;;;;;;;;;;17.90;99.90;;;;;;5050235;28;20036;-72
2022/08/22 05:02:18;;;;;;;5.55;1.95;;;17.90;99.90;;;;;;5051191;28;19966;-71
2022/08/22 05:04:49;;;;;;;;;;;17.90;99.90;;;;;;5050225;28;20033;-72
2022/08/22 05:07:27;;;;;;;5.55;2.05;;;17.90;99.90;;;;;;5050259;28;19909;-70
2022/08/22 05:10:20;;;;;;;5.00;2.05;;;17.90;99.90;;;;;;5049858;28;20030;-71
2022/08/22 05:13:06;;;;;;;4.15;1.75;;;17.90;99.90;;;;;;5037680;28;20107;-72
2022/08/22 05:15:37;;;;;;;4.20;1.75;;;17.90;99.90;;;;;;5050331;28;20041;-72
2022/08/22 05:18:12;;;;;;;7.07;2.15;;;17.90;99.90;;;;;;5052773;28;20438;-73
2022/08/22 05:20:38;;;;;;;;;;;18.00;99.90;;;;;;5053305;28;20065;-71
2022/08/22 05:23:17;;;;;;;6.55;1.58;;;18.00;99.90;;;;;;5034210;28;19908;-72
2022/08/22 05:25:47;;;;;;;5.07;1.65;;;18.00;99.90;;;;;;5054393;28;20073;-72
2022/08/22 05:28:31;;;;;;;11.23;2.22;;;18.00;99.90;;;;;;5054565;28;20021;-72
2022/08/22 05:30:57;;;;;;;5.50;1.65;;;18.00;99.90;;;;;;5055444;28;20962;-72
2022/08/22 05:33:29;;;;;;;2.55;1.73;;;17.90;99.90;;;;;;5050821;28;20025;-72
2022/08/22 05:36:21;;;;;;;14.52;2.45;;;17.90;99.90;;;;;;5054139;28;20030;-73
2022/08/22 05:39:02;;;;;;;8.90;1.98;;;18.00;99.90;;;;;;5054801;28;20072;-72
2022/08/22 05:41:34;;;;;;;3.30;1.30;;;18.00;99.90;;;;;;5035913;28;20026;-73
2022/08/22 05:44:01;;;;;;;12.65;2.65;;;18.00;99.90;;;;;;5054362;28;20044;-72
2022/08/22 05:46:45;;;;;;;7.75;2.30;;;18.00;99.90;;;;;;5052630;28;20061;-74
2022/08/22 05:49:46;;;;;;;11.65;2.08;;;18.10;99.90;;;;;;5053710;28;20022;-74
2022/08/22 05:52:35;;;;;;;11.38;2.05;;;18.10;99.90;;;;;;5054357;28;20128;-73
2022/08/22 05:55:14;;;;;;;3.72;1.50;;;18.10;99.90;;;;;;5054444;28;20021;-73
2022/08/22 05:57:45;;;;;;;5.05;2.03;;;18.10;99.90;;;;;;5055706;28;20025;-72
2022/08/22 06:00:18;;;;;;;9.90;1.85;;;18.10;99.90;;;;;;5035728;28;20037;-72
2022/08/22 06:02:59;;;;;;;4.10;1.33;;;18.10;99.90;;;;;;5053292;28;20028;-75
2022/08/22 06:05:29;;;;;;;10.23;2.85;;;18.10;99.90;;;;;;5054556;28;20033;-73
2022/08/22 06:08:04;;;;;;;4.13;1.15;;;18.10;99.90;;;;;;5053243;28;20029;-73
2022/08/22 06:10:45;;;;;;;7.35;2.25;;;18.20;99.90;;;;;;5054019;28;20033;-74
2022/08/22 06:13:19;;;;;;;1.85;0.98;;;18.20;99.90;;;;;;5035902;28;20047;-74
2022/08/22 06:15:51;;;;;;;2.58;1.90;;;18.30;99.90;;;;;;5055783;28;20104;-73
2022/08/22 06:18:22;;;;;;;2.65;1.13;;;18.40;99.90;;;;;;5034870;28;20037;-72
2022/08/22 06:21:01;;;;;;;2.55;1.55;;;18.40;99.90;;;;;;5054538;28;20052;-73
2022/08/22 06:23:35;;;;;;;3.47;1.45;;;18.40;99.90;;;;;;5054167;28;20104;-74
2022/08/22 06:26:02;;;;;;;6.67;1.63;;;18.40;99.90;;;;;;5035709;28;20120;-73
2022/08/22 06:28:39;;;;;;;10.40;1.85;;;18.60;99.90;;;;;;5052818;28;20022;-74
2022/08/22 06:31:07;;;;;;;5.40;1.67;;;18.60;99.90;;;;;;5034323;28;20109;-72
2022/08/22 06:33:37;;;;;;;10.40;1.98;;;18.60;99.90;;;;;;5054016;28;20025;-73
2022/08/22 06:39:26;;;;;;;2.95;1.55;;;18.70;99.90;;;;;;5053214;28;20117;-74
2022/08/22 06:42:01;;;;;;;5.10;2.35;;;18.80;99.90;;;;;;5052573;28;20099;-74
2022/08/22 06:44:34;;;;;;;6.03;1.73;;;18.80;99.90;;;;;;5035210;28;20017;-73
2022/08/22 06:47:07;;;;;;;9.43;2.05;;;18.90;99.90;;;;;;5051994;28;20548;-73
2022/08/22 06:49:34;;;;;;;5.72;1.35;;;18.90;99.90;;;;;;5047542;28;20040;-73
2022/08/22 06:52:05;;;;;;;7.63;1.63;;;19.00;99.90;;;;;;5049364;28;20025;-75
2022/08/22 06:54:35;;;;;;;5.20;1.75;;;19.10;99.90;;;;;;5034959;28;20049;-73
2022/08/22 06:57:03;;;;;;;8.30;1.10;;;19.20;99.90;;;;;;5051172;28;20112;-72
2022/08/22 06:59:34;;;;;;;10.73;1.55;;;19.20;99.90;;;;;;5032398;28;21376;-73
2022/08/22 07:02:32;;;;;;;7.95;1.42;;;19.30;99.90;;;;;;5047558;28;20036;-74
2022/08/22 07:04:58;;;;;;;6.75;1.40;;;19.40;99.90;;;;;;5052499;28;20044;-72
2022/08/22 07:07:29;;;;;;;6.55;1.15;;;19.50;99.90;;;;;;5053351;28;20033;-74
2022/08/22 07:09:56;;;;;;;4.47;1.95;;;19.50;99.90;;;;;;5053107;28;20030;-72
2022/08/22 07:12:28;;;;;;;3.83;1.10;;;19.70;99.90;;;;;;5051084;28;20081;-73
2022/08/22 07:14:59;;;;;;;1.75;1.40;;;19.90;99.90;;;;;;5053248;28;20025;-72
2022/08/22 07:17:31;;;;;;;2.03;1.02;;;19.90;99.90;;;;;;5052883;28;20028;-73
2022/08/22 07:20:22;;;;;;;1.80;1.13;;;20.00;99.90;;;;;;5049893;28;20112;-75
2022/08/22 07:22:58;;;;;;;1.55;0.90;;;20.10;99.90;;;;;;5034154;28;20036;-72
2022/08/22 07:25:25;;;;;;;4.30;1.08;;;20.20;99.90;;;;;;5049868;28;20053;-73
2022/08/22 07:28:30;;;;;;;4.13;1.73;;;20.20;99.90;;;;;;5051321;28;20107;-74
2022/08/22 07:31:02;;;;;;;5.85;1.00;;;20.30;99.90;;;;;;5024205;28;20037;-74
2022/08/22 07:33:45;;;;;;;1.27;0.93;;;20.40;99.90;;;;;;5051109;28;20059;-73
2022/08/22 07:36:35;;;;;;;3.50;1.35;;;20.40;99.90;;;;;;5050126;28;20030;-73
2022/08/22 07:39:31;;;;;;;6.28;1.38;;;20.50;99.90;;;;;;5032289;28;20034;-72
2022/08/22 07:42:21;;;;;;;8.20;1.42;;;20.60;99.90;;;;;;5051373;28;20029;-74
2022/08/22 07:45:07;;;;;;;3.15;1.20;;;20.70;99.90;;;;;;5051915;28;20045;-72
2022/08/22 07:48:13;;;;;;;5.68;1.35;;;20.60;99.90;;;;;;5043281;28;20067;-72
2022/08/22 07:51:06;;;;;;;3.13;1.35;;;20.70;99.90;;;;;;5048957;28;20447;-75
2022/08/22 07:53:43;;;;;;;1.05;0.70;;;20.90;99.90;;;;;;5049700;28;20054;-73
2022/08/22 07:56:22;;;;;;;8.68;1.83;;;21.00;99.90;;;;;;5051322;28;20022;-72
2022/08/22 07:58:54;;;;;;;3.38;1.15;;;21.10;99.90;;;;;;5050916;28;20021;-73
2022/08/22 08:01:22;;;;;;;4.45;0.93;;;21.20;99.90;;;;;;5052385;28;20033;-73
2022/08/22 08:03:55;;;;;;;2.22;1.17;;;21.30;99.90;;;;;;5052491;28;20051;-73
2022/08/22 08:06:24;;;;;;;5.47;1.65;;;21.40;99.90;;;;;;5051179;28;20033;-73
2022/08/22 08:08:51;;;;;;;5.95;0.93;;;21.50;99.90;;;;;;5051096;28;20030;-72
2022/08/22 08:11:18;;;;;;;4.90;1.30;;;21.60;99.90;;;;;;5051036;28;20033;-72
2022/08/22 08:13:50;;;;;;;7.72;0.90;;;21.70;99.90;;;;;;5051514;28;20569;-72
2022/08/22 08:16:21;;;;;;;5.13;1.15;;;21.70;99.90;;;;;;5050823;28;20033;-73
2022/08/22 08:18:49;;;;;;;3.58;1.00;;;21.80;99.90;;;;;;5052192;28;20025;-72
2022/08/22 08:21:36;;;;;;;1.85;1.15;;;21.80;99.90;;;;;;5050818;28;20032;-73
2022/08/22 08:24:10;;;;;;;4.15;1.02;;;21.90;99.90;;;;;;5051315;28;20075;-74
2022/08/22 08:28:32;;;;;;;2.60;1.23;;;22.00;99.90;;;;;;5051458;28;20033;-72
2022/08/22 08:29:30;;;;;;;3.35;0.93;;;22.10;99.90;;;;;;5050918;28;20367;-74
2022/08/22 08:31:59;;;;;;;7.57;1.13;;;22.20;99.90;;;;;;5050335;28;20124;-73
2022/08/22 08:34:26;;;;;;;2.05;0.82;;;22.30;99.90;;;;;;5051646;28;21275;-73
2022/08/22 08:37:03;;;;;;;19.25;2.22;;;22.40;99.90;;;;;;5048451;28;20021;-73
2022/08/22 08:39:42;;;;;;;5.80;1.05;;;22.60;99.90;;;;;;5048676;28;20104;-73
2022/08/22 08:46:14;;;;;;;0.85;0.50;;;22.90;99.90;;;;;;5048818;28;20048;-74
2022/08/22 08:48:48;;;;;;;2.45;1.30;;;23.00;99.90;;;;;;5039666;28;20045;-71
2022/08/22 08:52:04;;;;;;;3.75;0.93;;;23.10;99.90;;;;;;5049802;28;20026;-73
2022/08/22 08:55:01;;;;;;;8.38;1.00;;;23.20;99.90;;;;;;5050567;28;20088;-74
2022/08/22 08:57:44;;;;;;;6.63;1.20;;;23.30;99.90;;;;;;5050855;28;20084;-73
2022/08/22 09:00:13;;;;;;;2.50;1.13;;;23.50;99.90;;;;;;5046829;28;20042;-72
2022/08/22 09:03:02;;;;;;;3.60;1.20;;;23.60;99.90;;;;;;5043750;28;20029;-73
2022/08/22 09:05:51;;;;;;;8.10;1.40;;;23.70;99.90;;;;;;5047218;28;20025;-75
2022/08/22 09:08:39;;;;;;;2.20;1.05;;;23.80;99.90;;;;;;5051066;28;20035;-77
2022/08/22 09:11:18;;;;;;;4.85;0.85;;;23.80;99.90;;;;;;5048473;28;20079;-75
2022/08/22 09:14:22;;;;;;;5.43;0.77;;;23.80;99.90;;;;;;5050509;28;20018;-72
2022/08/22 09:17:18;;;;;;;8.45;1.25;;;23.90;99.90;;;;;;5051377;28;20033;-73
2022/08/22 09:20:03;;;;;;;5.75;1.20;;;24.00;99.90;;;;;;5050712;28;20064;-73
2022/08/22 09:22:57;;;;;;;2.05;1.33;;;24.10;99.90;;;;;;5051411;28;20067;-74
2022/08/22 09:25:45;;;;;;;3.22;1.05;;;24.20;99.90;;;;;;5048258;28;20046;-71
2022/08/22 09:28:15;;;;;;;2.00;0.93;;;24.30;99.90;;;;;;5050543;28;20029;-70
2022/08/22 09:31:13;;;;;;;9.85;1.17;;;24.30;99.90;;;;;;5051287;28;20029;-71
2022/08/22 09:33:51;;;;;;;1.33;0.80;;;24.30;99.90;;;;;;5048782;28;20033;-73
2022/08/22 09:36:28;;;;;;;1.58;0.90;;;24.30;99.90;;;;;;5050239;28;20033;-70
2022/08/22 09:39:33;;;;;;;4.25;0.95;;;24.30;99.90;;;;;;5049839;28;20025;-74
2022/08/22 09:42:24;;;;;;;2.45;1.08;;;24.30;99.90;;;;;;5049151;28;20022;-75
2022/08/22 09:45:05;;;;;;;2.35;0.88;;;24.30;99.90;;;;;;5031033;28;20054;-73
2022/08/22 09:47:38;;;;;;;5.28;1.48;;;24.20;99.90;;;;;;5050778;28;20401;-76
2022/08/22 09:50:16;;;;;;;3.92;0.73;;;24.10;99.90;;;;;;5050735;28;20036;-79
2022/08/22 09:53:30;;;;;;;1.95;0.93;;;24.10;99.90;;;;;;5032885;28;20025;-74
2022/08/22 09:56:12;;;;;;;6.35;1.10;;;24.10;99.90;;;;;;4970176;28;20043;-74
2022/08/22 09:59:01;;;;;;;3.80;0.75;;;24.20;99.90;;;;;;4969973;28;20066;-74
2022/08/22 10:01:33;;;;;;;2.03;0.90;;;24.30;99.90;;;;;;5028678;28;20042;-71
2022/08/22 10:04:37;;;;;;;1.00;0.63;;;24.30;99.90;;;;;;5033226;28;20033;-72
2022/08/22 10:07:29;;;;;;;1.48;1.05;;;24.50;99.90;;;;;;5054320;28;20042;-75
2022/08/22 10:10:24;;;;;;;2.60;1.15;;;24.60;99.90;;;;;;5006056;28;20034;-74
2022/08/22 10:12:58;;;;;;;5.65;1.08;;;24.70;99.90;;;;;;5054218;28;20535;-76
2022/08/22 10:15:33;;;;;;;1.25;0.75;;;24.80;99.90;;;;;;5054337;28;21457;-74
2022/08/22 10:18:18;;;;;;;1.30;0.75;;;25.00;99.90;;;;;;5054167;28;20034;-73
2022/08/22 10:20:49;;;;;;;2.22;1.20;;;25.20;99.90;;;;;;5052898;28;20084;-74
2022/08/22 10:23:34;;;;;;;3.88;1.40;;;25.30;99.90;;;;;;5035042;28;20021;-76
2022/08/22 10:26:18;;;;;;;;;;;25.40;99.90;;;;;;5054216;28;20045;-73
2022/08/22 10:28:47;;;;;;;3.15;1.10;;;25.30;99.90;;;;;;5046043;28;19944;-75
2022/08/22 10:31:42;;;;;;;5.28;1.08;;;25.40;99.90;;;;;;5048575;28;20025;-74
2022/08/22 10:34:27;;;;;;;3.22;1.13;;;25.40;99.90;;;;;;5050776;28;20038;-74
2022/08/22 10:37:30;;;;;;;1.83;1.05;;;25.50;99.90;;;;;;5053522;28;20497;-75
2022/08/22 10:40:16;;;;;;;8.70;1.52;;;25.60;99.90;;;;;;5052929;28;20029;-76
2022/08/22 10:42:52;;;;;;;3.65;1.48;;;25.70;99.90;;;;;;5052495;28;20080;-75
2022/08/22 10:45:35;;;;;;;2.65;1.23;;;25.60;99.90;;;;;;5051554;28;20116;-73
2022/08/22 10:48:03;;;;;;;3.10;1.05;;;25.60;99.90;;;;;;5049244;28;20048;-74
2022/08/22 10:50:47;;;;;;;2.28;0.93;;;25.80;99.90;;;;;;5052539;28;20053;-74
2022/08/22 10:53:49;;;;;;;2.05;1.00;;;25.90;99.90;;;;;;5052254;28;20048;-74
2022/08/22 10:56:49;;;;;;;5.03;1.48;;;26.20;99.90;;;;;;5050617;28;20034;-73
2022/08/22 10:59:34;;;;;;;4.47;1.30;;;26.70;99.90;;;;;;5050903;28;20025;-76
2022/08/22 11:02:18;;;;;;;3.72;1.35;;;26.90;99.90;;;;;;5051855;28;20361;-76
2022/08/22 11:04:49;;;;;;;1.80;0.85;;;27.00;99.90;;;;;;5050957;28;20377;-75
2022/08/22 11:07:45;;;;;;;1.15;0.88;;;27.00;99.90;;;;;;5051783;28;20030;-74
2022/08/22 11:10:37;;;;;;;6.95;1.40;;;27.10;99.90;;;;;;5052006;28;20098;-76
2022/08/22 11:13:14;;;;;;;2.85;1.45;;;27.00;99.90;;;;;;5050699;28;20066;-76
2022/08/22 11:16:10;;;;;;;2.95;1.33;;;26.60;99.90;;;;;;5051108;28;20029;-74
2022/08/22 11:18:47;;;;;;;2.00;1.00;;;26.40;99.90;;;;;;5040040;28;20087;-71
2022/08/22 11:21:49;;;;;;;2.88;1.27;;;26.30;99.90;;;;;;5052841;28;20025;-73
2022/08/22 11:24:30;;;;;;;2.08;1.23;;;26.30;99.90;;;;;;5050172;28;20059;-74
2022/08/22 11:27:13;;;;;;;4.63;1.08;;;26.20;99.90;;;;;;5051232;28;20040;-76
2022/08/22 11:29:58;;;;;;;5.95;1.38;;;26.20;99.90;;;;;;5049787;28;20100;-75
2022/08/22 11:32:42;;;;;;;0.98;0.75;;;26.20;99.90;;;;;;5051126;28;20044;-76
2022/08/22 11:35:22;;;;;;;2.20;1.10;;;26.30;99.90;;;;;;5048445;28;20045;-72
2022/08/22 11:37:59;;;;;;;5.10;1.25;;;26.30;99.90;;;;;;5047506;28;20854;-72
2022/08/22 11:41:01;;;;;;;1.75;0.93;;;26.40;99.90;;;;;;5049517;28;20025;-73
2022/08/22 11:44:13;;;;;;;1.33;1.10;;;26.40;99.90;;;;;;5050944;28;20025;-74
2022/08/22 11:46:43;;;;;;;2.67;0.82;;;26.30;99.90;;;;;;5048062;28;20059;-76
2022/08/22 11:49:17;;;;;;;5.90;1.15;;;26.20;99.90;;;;;;5049465;28;20029;-76
2022/08/22 11:52:20;;;;;;;2.05;1.00;;;26.10;99.90;;;;;;5049815;28;20036;-71
2022/08/22 11:55:00;;;;;;;1.65;0.98;;;25.90;99.90;;;;;;5048881;28;20029;-72
2022/08/22 11:57:29;;;;;;;5.55;1.45;;;25.80;99.90;;;;;;5052451;28;20040;-72
2022/08/22 12:00:17;;;;;;;2.42;1.17;;;25.80;99.90;;;;;;5049643;28;20550;-74
2022/08/22 12:03:15;;;;;;;3.22;1.58;;;25.80;99.90;;;;;;5048319;28;20066;-72
2022/08/22 12:06:05;;;;;;;1.95;0.90;;;25.80;99.90;;;;;;5050223;28;21435;-71
2022/08/22 12:08:34;;;;;;;2.42;1.27;;;25.80;99.90;;;;;;5051640;28;20033;-72
2022/08/22 12:11:22;;;;;;;0.75;0.75;;;25.90;99.90;;;;;;5051557;28;20132;-73
2022/08/22 12:13:54;;;;;;;3.40;0.93;;;26.00;99.90;;;;;;5049941;28;20033;-73
2022/08/22 12:16:22;;;;;;;3.75;1.20;;;25.90;99.90;;;;;;5049045;28;20033;-71
2022/08/22 12:19:11;;;;;;;2.97;1.00;;;25.90;99.90;;;;;;5049154;28;20021;-70
2022/08/22 12:21:56;;;;;;;1.73;1.02;;;26.00;99.90;;;;;;5050662;28;20029;-71
2022/08/22 12:24:43;;;;;;;2.20;0.93;;;26.00;99.90;;;;;;5047317;28;20068;-71
2022/08/22 12:27:25;;;;;;;1.85;0.80;;;26.10;99.90;;;;;;5050345;28;20033;-72
2022/08/22 12:30:23;;;;;;;1.27;0.93;;;26.10;99.90;;;;;;5050509;28;20044;-70
2022/08/22 12:33:16;;;;;;;1.85;0.90;;;26.20;99.90;;;;;;5048236;28;20606;-71
2022/08/22 12:36:41;;;;;;;6.68;0.80;;;26.20;99.90;;;;;;5049679;28;20116;-72
2022/08/22 12:39:28;;;;;;;6.95;1.10;;;26.20;99.90;;;;;;5032608;28;20828;-70
2022/08/22 12:42:20;;;;;;;2.28;0.98;;;26.20;99.90;;;;;;5050963;28;20025;-72
2022/08/22 12:45:27;;;;;;;2.40;1.05;;;26.20;99.90;;;;;;5049917;28;20032;-72
2022/08/22 12:48:34;;;;;;;1.63;0.85;;;26.30;99.90;;;;;;5036065;28;20049;-73
2022/08/22 12:51:19;;;;;;;3.10;1.23;;;26.30;99.90;;;;;;5050808;28;20049;-73
2022/08/22 12:54:05;;;;;;;7.10;1.40;;;26.20;99.90;;;;;;5051295;28;20035;-72
2022/08/22 12:56:40;;;;;;;1.00;0.70;;;26.20;99.90;;;;;;5048607;28;20021;-71
2022/08/22 12:59:20;;;;;;;9.63;1.30;;;26.10;99.90;;;;;;5050833;28;20103;-72
2022/08/22 13:01:49;;;;;;;3.28;1.15;;;26.20;99.90;;;;;;5049623;28;20055;-71
2022/08/22 13:04:25;;;;;;;3.33;1.23;;;26.10;99.90;;;;;;5050441;28;20071;-70
2022/08/22 13:07:04;;;;;;;5.30;1.23;;;26.10;99.90;;;;;;5050890;28;20579;-72
2022/08/22 13:09:37;;;;;;;2.63;1.33;;;26.10;99.90;;;;;;5051471;28;20025;-72
2022/08/22 13:12:33;;;;;;;2.50;0.98;;;26.00;99.90;;;;;;5051086;28;20030;-72
2022/08/22 13:15:07;;;;;;;2.70;1.20;;;26.00;99.90;;;;;;5051669;28;20037;-72
2022/08/22 13:17:34;;;;;;;;;;;26.00;99.90;;;;;;5051779;28;20056;-73
2022/08/22 13:20:09;;;;;;;2.17;1.25;;;26.00;99.90;;;;;;5051060;28;19905;-73
2022/08/22 13:22:39;;;;;;;15.95;1.33;;;26.00;99.90;;;;;;5050754;28;20018;-72
2022/08/22 13:25:13;;;;;;;10.38;1.40;;;26.00;99.90;;;;;;5050499;28;20508;-72
2022/08/22 13:27:49;;;;;;;5.33;1.33;;;26.10;99.90;;;;;;5051152;28;20013;-73
2022/08/22 13:30:20;;;;;;;4.20;1.40;;;26.20;99.90;;;;;;5050502;28;20713;-71
2022/08/22 13:32:52;;;;;;;1.25;0.90;;;26.20;99.90;;;;;;5048698;28;20021;-72
2022/08/22 13:35:29;;;;;;;0.93;0.75;;;26.30;99.90;;;;;;5051234;28;20033;-73
2022/08/22 13:38:03;;;;;;;1.08;0.77;;;26.50;99.90;;;;;;5051545;28;20128;-72
2022/08/22 13:40:31;;;;;;;2.58;1.00;;;26.60;99.90;;;;;;5054114;28;20026;-72
2022/08/22 13:43:07;;;;;;;7.13;1.15;;;26.70;99.90;;;;;;5054748;28;20029;-71
2022/08/22 13:45:35;;;;;;;0.75;0.60;;;26.80;99.90;;;;;;5053683;28;20056;-71
2022/08/22 13:48:10;;;;;;;7.82;1.55;;;27.00;99.90;;;;;;5053346;28;20105;-71
2022/08/22 13:50:55;;;;;;;4.63;1.52;;;27.10;99.90;;;;;;5055189;28;20025;-71
2022/08/22 13:53:39;;;;;;;1.98;1.20;;;27.20;99.90;;;;;;5054099;28;20029;-70
2022/08/22 13:56:08;;;;;;;;;;;27.30;99.90;;;;;;5054909;28;20045;-72
2022/08/22 13:58:44;;;;;;;3.97;1.55;;;27.30;99.90;;;;;;5052216;28;19909;-73
2022/08/22 14:01:48;;;;;;;2.05;0.98;;;27.30;99.90;;;;;;5045262;28;20051;-72
2022/08/22 14:04:32;;;;;;;2.40;1.20;;;27.40;99.90;;;;;;5049324;28;20064;-72
2022/08/22 14:07:01;;;;;;;3.75;1.10;;;27.40;99.90;;;;;;5053101;28;20071;-72
2022/08/22 14:09:54;;;;;;;3.85;1.02;;;27.30;99.90;;;;;;5035961;28;20370;-72
2022/08/22 14:13:06;;;;;;;1.88;0.85;;;27.30;99.90;;;;;;5052840;28;20034;-71
2022/08/22 14:15:34;;;;;;;1.70;1.05;;;27.20;99.90;;;;;;5036527;28;20400;-72